TISTTKPK

Guest
Details From TIST - St Thomas - Cyril E King
To TKPK - St. Kitts/Bradshaw Intl
Flight Number -
Tags generated
Created
Modified
Stats Distance 144 nm / 267 km
Max Altitude 13,100 ft / 3,993 m
Waypoints 3
Social Downloads 4
Likes 0
Share VATSIM

Download

Looking for another format? Having issues loading an existing format? Contact us
Advertisement - Login to hide

Notes

Basic altitude profile: - Ascent Rate: 2500ft/min - Ascent Speed: 250kts - Cruise Altitude: 35000ft - Cruise Speed: 420kts - Descent Rate: 1500ft/min - Descent Speed: 250kts Options: - Use NATs: yes - Use PACOTS: yes - Use low airways: yes - Use high airways: yes

Route

TIST GOUDA TKPK

ID Type Via Altitude Latitude Longitude Leg Dist Tot Dist Heading (true) Name
O TIST APT - 0 ft / 0 m 18.33730˚ -64.97334˚ - 0 nm - St Thomas - Cyril E King
GOUDA FIX - 13,100 ft / 3,993 m 17.93402˚ -63.66667˚ 78 nm 78 nm 108° / 108° -
O TKPK APT - 0 ft / 0 m 17.31119˚ -62.71867˚ 65 nm 144 nm 124° / 125° St. Kitts/Bradshaw Intl

Altitude Profile

Advertisement - Login to hide

TIST

Details ICAO TIST (STT)
Name St Thomas - Cyril E King
Region USA (U.S. Virgin Islands)
Timezone Unknown (UTC+0.0)
Stats Elevation 23 ft / 7 m (AMSL)
Location 18.337300° -64.973344°
Runways 1
Magnetic Variation 13.636° W

METAR

TIST 171553Z 04016G22KT 10SM FEW070 29/22 A3007

Decode

TAF

TAF TIST 171141Z 1712/1812 04015KT P6SM FEW025 SCT035 FM171400 07017G24KT P6SM VCSH SCT025 SCT050 FM172300 05013KT P6SM VCSH SCT022 SCT040

Decode

Departure Runways

ID Width Length Bearing (true) Bearing (mag) Surface Threshold Offset Overrun Length
10 151 ft / 46 m 6,992 ft / 2,131 m 87.44° 101.08° Asphalt 0 ft / 0 m 200 ft / 61 m
28 151 ft / 46 m 6,992 ft / 2,131 m 267.44° 281.08° Asphalt 2,300 ft / 701 m 200 ft / 61 m

TKPK

Details ICAO TKPK (SKB)
Name St. Kitts/Bradshaw Intl
Region Saint Kitts and Nevis
Timezone America/St_Kitts (UTC-4.0)
Stats Elevation 170 ft / 52 m (AMSL)
Location 17.311194° -62.718666°
Runways 1
Magnetic Variation 14.451° W

METAR

TKPK 171600Z 04010KT 9999 VCSH BKN017 SCT045 27/24 Q1017

Decode

TAF

TAF TAF AMD TKPK 171405Z 1714/1812 04014G22KT P6SM VCSH SCT018 SCT050 TEMPO 1714/1716 -SHRA BKN016 FM172300 05012KT P6SM FEW022 AMD NOT SKED 1802/1811

Decode

Destination Runways

ID Width Length Bearing (true) Bearing (mag) Surface Threshold Offset Overrun Length
07 148 ft / 45 m 7,620 ft / 2,323 m 56.95° 71.40° Asphalt 200 ft / 61 m 0 ft / 0 m
25 148 ft / 45 m 7,620 ft / 2,323 m 236.95° 251.40° Asphalt 0 ft / 0 m 0 ft / 0 m

Popular Alternatives